Middle River, MN

11:31 AM CST on December 20, 2014 (GMT -0600)
Erickson Family Farms | Change Station
CLOSE
Current Station
Personal Weather Station
Location: Middle River, MN
Elevation: 1142 ft
Nearby Weather Stations
Active Advisory: Winter Weather Advisory

Elev 1142 ft 48.34 °N, 96.09 °W | Updated 1 second ago

Overcast
Overcast
29.3 °F
Feels Like 22 °F
N
6.7
Wind Variable Wind from SSW
Gusts 7.4 mph

Today
High -- | Low -- °F
--% Chance of Precip.
Yesterday
High -- | Low -- °F
Precip. -- in
8:12 AM 4:31 PM
Waning Crescent, 2% visible
Pressure 30.01 in
Visibility 3.0 miles
Clouds Overcast 600 ft
Windchill 22 °F
Dew Point 26 °F
Humidity 87%
Rainfall 0.00 in
Snow Depth Not available.
UV 1.0 out of 12
Pollen .10 out of 12
Air Quality Not available.
Flu Activity Not available.
METAR KTVF 201715Z AUTO 19007KT 3SM OVC006 M02/M02 A3001 RMK AO1

More Conditions Fewer Conditions

Pressure 30.01 in
Visibility 3.0 miles
Clouds Overcast 600 ft
Windchill 22 °F
Dew Point 26 °F
Humidity 87%
Rainfall 0.00 in
Snow Depth Not available.
UV 1.0 out of 12
Pollen .10 out of 12
Air Quality Not available.
Flu Activity Not available.
METAR KTVF 201715Z AUTO 19007KT 3SM OVC006 M02/M02 A3001 RMK AO1

More Conditions Fewer Conditions

10-Day Weather Forecast

Almanac

Astronomy

Dec. 20, 2014 Rise Set
Actual Time
Civil Twilight
Nautical Twilight
Astronomical Twilight
Moon
Length of Visible Light
Length of Day
Tomorrow will be .
, % of the Moon is Illuminated

Today's Extremes

State Highs State Lows

Community

WunderPhotos

Upload Photos

1,779,226 photos uploaded!

WunderBlogs® & News

Nearby

Air Quality

  Air Quality AQ Index Pollutant
Not available.

Snow Depth

Station Depth Elevation

Earthquake Activity

City Distance Mag. Time & Date
Minimum magnitude displayed is 2.5.

Coastal Water Temperatures

Place Temperature

Nearby Weather Stations